createdAt,value
2022-12-04T09:36:48.707Z,10.00
2022-12-04T09:39:16.163Z,11.75
2022-12-04T09:42:05.096Z,10.93
2022-12-04T09:44:52.848Z,8.13
2022-12-04T09:47:53.984Z,11.65
2022-12-04T09:50:53.911Z,11.32
2022-12-04T09:53:52.218Z,10.57
2022-12-04T09:56:35.572Z,13.82
2022-12-04T09:59:19.780Z,11.10
2022-12-04T10:04:37.634Z,11.43
2022-12-04T10:07:16.919Z,9.82
2022-12-04T10:09:56.022Z,12.00
2022-12-04T10:12:52.158Z,11.63
2022-12-04T10:15:32.902Z,9.57
2022-12-04T10:18:26.055Z,11.80
2022-12-04T10:21:14.684Z,9.50
2022-12-04T10:23:52.304Z,9.52
2022-12-04T10:26:22.505Z,9.27
2022-12-04T10:29:03.771Z,11.85
2022-12-04T10:31:34.433Z,11.60
2022-12-04T10:34:07.681Z,10.30
2022-12-04T10:36:35.600Z,10.20
2022-12-04T10:39:25.306Z,9.20
2022-12-04T10:42:03.771Z,8.73
2022-12-04T10:44:30.867Z,9.90
2022-12-04T10:47:03.279Z,10.23
2022-12-04T10:49:34.732Z,9.10
2022-12-04T10:52:02.061Z,9.90
2022-12-04T10:55:11.107Z,9.30
2022-12-04T10:57:45.600Z,7.68
2022-12-04T11:00:32.746Z,10.18
2022-12-04T11:03:04.361Z,14.18
2022-12-04T11:05:44.355Z,7.15
2022-12-04T11:08:26.647Z,9.45
2022-12-04T11:11:10.523Z,9.27
2022-12-04T11:13:38.645Z,9.88
2022-12-04T11:16:09.958Z,12.30
2022-12-04T11:18:49.538Z,8.68
2022-12-04T11:21:23.325Z,7.57
2022-12-04T11:24:00.607Z,10.80
2022-12-04T11:26:31.005Z,8.32
2022-12-04T11:29:05.522Z,10.45
2022-12-04T11:31:35.627Z,9.35
2022-12-04T11:34:08.188Z,13.82
2022-12-04T11:36:43.927Z,9.18
2022-12-04T11:39:22.833Z,9.27
2022-12-04T11:42:05.111Z,9.10
2022-12-04T11:44:36.539Z,8.32
2022-12-04T11:47:06.039Z,8.32
2022-12-04T11:49:40.904Z,8.98
2022-12-04T11:52:26.710Z,9.05
2022-12-04T11:55:08.957Z,6.95
2022-12-04T11:57:57.353Z,7.57
2022-12-04T12:00:28.875Z,9.75
2022-12-04T12:03:08.122Z,6.35
2022-12-04T12:06:02.745Z,9.77
2022-12-04T12:08:37.756Z,8.63
2022-12-04T12:11:27.534Z,9.00
2022-12-04T12:14:18.072Z,9.73
2022-12-04T12:16:58.422Z,8.88
2022-12-04T12:19:33.643Z,10.25
2022-12-04T12:22:11.700Z,11.45
2022-12-04T12:25:07.810Z,8.85
2022-12-04T12:28:10.121Z,7.50
2022-12-04T12:31:13.077Z,9.15
2022-12-04T12:33:47.055Z,8.00
2022-12-04T12:36:15.609Z,7.03
2022-12-04T12:38:58.981Z,8.82
2022-12-04T12:41:44.292Z,7.78
2022-12-04T12:44:20.616Z,8.35
2022-12-04T12:46:53.337Z,7.78
2022-12-04T12:49:27.041Z,9.20
2022-12-04T12:52:13.446Z,9.82
2022-12-04T12:54:49.292Z,10.90
2022-12-04T12:57:29.407Z,9.00
2022-12-04T13:00:04.065Z,7.20
2022-12-04T13:02:59.623Z,8.13
2022-12-04T13:05:54.350Z,7.35
2022-12-04T13:08:30.029Z,9.68
2022-12-04T13:11:17.174Z,9.43
2022-12-04T13:14:07.464Z,7.15
2022-12-04T13:16:52.911Z,9.70
2022-12-04T13:19:33.058Z,7.40
2022-12-04T13:22:44.075Z,9.00
2022-12-04T13:25:28.122Z,10.48
2022-12-04T13:28:09.199Z,10.85
2022-12-04T13:31:19.441Z,8.52
2022-12-04T13:34:18.128Z,9.90
2022-12-04T13:37:13.564Z,9.05
2022-12-04T13:40:28.008Z,8.38
2022-12-04T13:43:11.653Z,6.57
2022-12-04T13:45:45.228Z,8.80
2022-12-04T13:48:44.096Z,8.93
2022-12-04T13:51:27.438Z,7.40
2022-12-04T13:57:15.693Z,9.52
2022-12-04T13:59:43.834Z,9.95
2022-12-04T14:02:46.983Z,9.13
2022-12-04T14:05:15.119Z,8.38
2022-12-04T14:08:44.239Z,10.35
2022-12-04T14:11:52.900Z,11.13
2022-12-04T14:14:27.464Z,11.18
2022-12-04T14:17:00.771Z,11.15
2022-12-04T14:19:37.429Z,10.60
2022-12-04T14:22:05.015Z,12.88
2022-12-04T14:24:40.072Z,12.52
2022-12-04T14:27:42.097Z,12.43
2022-12-04T14:30:23.800Z,11.38
2022-12-04T14:33:00.967Z,11.68
2022-12-04T14:35:29.517Z,11.52
2022-12-04T14:38:04.581Z,13.15
2022-12-04T14:40:49.642Z,9.85
2022-12-04T14:43:22.121Z,12.85
2022-12-04T14:46:11.923Z,9.77
2022-12-04T14:49:11.037Z,10.48
2022-12-04T14:52:18.035Z,9.27
2022-12-04T14:55:13.605Z,9.85
2022-12-04T14:58:42.646Z,10.57
2022-12-04T15:01:50.071Z,9.98
2022-12-04T15:05:08.424Z,10.88
2022-12-04T15:07:55.584Z,13.23
2022-12-04T15:10:44.873Z,11.50
2022-12-04T15:13:16.057Z,15.38
2022-12-04T15:20:27.017Z,12.00
2022-12-04T15:22:58.945Z,12.30
2022-12-04T15:25:40.974Z,11.23
2022-12-04T15:28:49.525Z,10.95
2022-12-04T15:31:38.044Z,10.60
2022-12-04T15:34:46.044Z,13.73
2022-12-04T15:40:26.594Z,12.13
2022-12-04T15:43:18.980Z,14.43
2022-12-04T15:45:49.205Z,11.05
2022-12-04T15:48:48.086Z,11.73
2022-12-04T15:51:21.952Z,13.48
2022-12-04T15:53:58.032Z,9.95
2022-12-04T15:59:20.715Z,10.70
2022-12-04T16:01:49.181Z,13.70
2022-12-04T16:04:26.655Z,14.13
2022-12-04T16:06:57.983Z,12.07
2022-12-04T16:09:30.479Z,10.63
2022-12-04T16:12:20.352Z,13.18
2022-12-04T16:14:50.705Z,11.93
2022-12-04T16:20:07.737Z,9.75
2022-12-04T16:22:42.790Z,9.75
2022-12-04T16:25:40.552Z,9.88
2022-12-04T16:28:12.051Z,8.40
2022-12-04T16:30:39.754Z,11.40
2022-12-04T16:33:19.344Z,8.20
2022-12-04T16:35:49.554Z,10.05
2022-12-04T16:38:19.833Z,10.05
2022-12-04T16:40:50.993Z,13.02
2022-12-04T16:43:29.245Z,12.40
2022-12-04T16:46:03.930Z,10.98
2022-12-04T16:48:41.321Z,9.65
2022-12-04T16:51:23.677Z,12.77
2022-12-04T16:54:18.464Z,9.20
2022-12-04T16:56:49.008Z,11.60
2022-12-04T16:59:20.680Z,12.65
2022-12-04T17:02:00.448Z,8.93
2022-12-04T17:04:31.973Z,10.32
2022-12-04T17:07:07.144Z,10.52
2022-12-04T17:09:36.676Z,9.95
2022-12-04T17:12:04.957Z,8.90
2022-12-04T17:14:39.446Z,11.20
2022-12-04T17:17:15.925Z,10.57
2022-12-04T17:19:50.538Z,11.18
2022-12-04T17:22:23.253Z,12.50
2022-12-04T17:24:56.771Z,9.95
2022-12-04T17:30:10.826Z,10.70
2022-12-04T17:32:46.775Z,9.00
2022-12-04T17:35:58.677Z,10.52
2022-12-04T17:38:28.415Z,9.55
2022-12-04T17:41:03.185Z,11.05
2022-12-04T17:43:32.711Z,9.77
2022-12-04T17:46:08.384Z,8.93
2022-12-04T17:48:38.694Z,10.68
2022-12-04T17:51:36.610Z,10.27
2022-12-04T17:54:05.376Z,10.73
2022-12-04T17:56:34.083Z,9.55
2022-12-04T17:59:01.166Z,11.18
2022-12-04T18:01:29.426Z,10.85
2022-12-04T18:04:06.055Z,11.80
2022-12-04T18:06:36.657Z,10.88
2022-12-04T18:09:07.016Z,11.35
2022-12-04T18:11:50.673Z,11.63
2022-12-04T18:14:24.142Z,12.50
2022-12-04T18:16:57.341Z,11.48
2022-12-04T18:22:00.475Z,10.30
2022-12-04T18:26:56.443Z,12.45
2022-12-04T18:29:28.176Z,12.38
2022-12-04T18:31:55.720Z,10.13
2022-12-04T18:34:24.261Z,11.65
2022-12-04T18:36:52.792Z,16.02
2022-12-04T18:39:24.598Z,11.60
2022-12-04T18:41:58.632Z,9.48
2022-12-04T18:44:27.774Z,14.80
2022-12-04T18:47:07.549Z,13.50
2022-12-04T18:49:46.571Z,13.52
2022-12-04T18:52:25.579Z,14.52
2022-12-04T18:54:56.565Z,12.02
2022-12-04T18:57:36.728Z,10.32
2022-12-04T19:00:04.752Z,12.68
2022-12-04T19:02:37.217Z,14.68
2022-12-04T19:05:05.744Z,11.07
2022-12-04T19:07:33.271Z,10.65
2022-12-04T19:10:12.170Z,11.52
2022-12-04T19:12:39.640Z,10.55
2022-12-04T19:15:09.600Z,18.83
2022-12-04T19:17:39.453Z,14.32
2022-12-04T19:20:13.707Z,11.80
2022-12-04T19:22:43.889Z,12.65
2022-12-04T19:25:10.961Z,11.05
2022-12-04T19:27:41.080Z,10.95
2022-12-04T19:30:08.848Z,10.80
2022-12-04T19:32:38.904Z,12.82
2022-12-04T19:35:06.777Z,14.77
2022-12-04T19:37:38.292Z,9.82
2022-12-04T19:40:09.101Z,11.48
2022-12-04T19:42:38.776Z,12.13
2022-12-04T19:45:10.918Z,13.57
2022-12-04T19:47:39.901Z,9.35
2022-12-04T19:50:07.624Z,11.82
2022-12-04T19:52:34.624Z,13.88
2022-12-04T19:55:01.717Z,12.30
2022-12-04T19:57:29.667Z,12.68
2022-12-04T19:59:56.663Z,12.48
2022-12-04T20:02:23.720Z,10.98
2022-12-04T20:04:50.797Z,15.00
2022-12-04T20:07:19.292Z,15.70
2022-12-04T20:09:54.806Z,15.38
2022-12-04T20:12:21.982Z,11.05
2022-12-04T20:14:49.576Z,11.02
2022-12-04T20:17:16.974Z,14.02
2022-12-04T20:19:44.502Z,16.15
2022-12-04T20:22:11.729Z,15.13
2022-12-04T20:24:39.069Z,12.45
2022-12-04T20:27:06.315Z,14.07
2022-12-04T20:29:33.415Z,13.52
2022-12-04T20:32:00.311Z,13.00
2022-12-04T20:34:27.356Z,15.13
2022-12-04T20:36:54.371Z,12.93
2022-12-04T20:39:21.420Z,12.65
2022-12-04T20:41:50.770Z,11.48
2022-12-04T20:44:19.747Z,10.90
2022-12-04T20:46:47.581Z,12.70
2022-12-04T20:49:21.217Z,13.13
2022-12-04T20:51:49.071Z,14.55
2022-12-04T20:54:20.727Z,13.45
2022-12-04T20:56:49.256Z,14.35
2022-12-04T20:59:18.770Z,11.50
2022-12-04T21:01:46.753Z,13.70
2022-12-04T21:04:14.112Z,14.93
2022-12-04T21:06:44.981Z,15.60
2022-12-04T21:09:15.002Z,11.30
2022-12-04T21:11:56.278Z,11.77
2022-12-04T21:14:48.419Z,12.80
2022-12-04T21:17:19.400Z,15.20
2022-12-04T21:19:50.283Z,21.13
2022-12-04T21:22:19.146Z,14.30
2022-12-04T21:24:46.188Z,14.15
2022-12-04T21:27:17.439Z,16.02
2022-12-04T21:29:50.549Z,13.85
2022-12-04T21:32:19.479Z,13.55
2022-12-04T21:34:46.494Z,13.70
2022-12-04T21:37:13.796Z,13.48
2022-12-04T21:39:42.015Z,19.92
2022-12-04T21:42:27.739Z,14.27
2022-12-04T21:44:55.741Z,15.75
2022-12-04T21:47:23.167Z,17.42
2022-12-04T21:49:50.266Z,14.98
2022-12-04T21:52:19.391Z,14.57
2022-12-04T21:54:52.558Z,18.33
2022-12-04T21:57:20.156Z,14.57
2022-12-04T21:59:47.261Z,12.98
2022-12-04T22:02:15.579Z,14.05
2022-12-04T22:04:42.854Z,13.75
2022-12-04T22:07:10.565Z,15.23
2022-12-04T22:09:39.120Z,18.52
2022-12-04T22:12:26.399Z,12.45
2022-12-04T22:14:53.689Z,16.67
2022-12-04T22:17:20.667Z,14.30
2022-12-04T22:19:47.559Z,12.35
2022-12-04T22:22:14.575Z,12.75
2022-12-04T22:24:41.894Z,12.95
2022-12-04T22:27:14.955Z,14.38
2022-12-04T22:29:50.602Z,11.98
2022-12-04T22:32:22.961Z,14.63
2022-12-04T22:34:50.149Z,11.80
2022-12-04T22:37:17.385Z,13.90
2022-12-04T22:39:44.314Z,15.45
2022-12-04T22:42:11.227Z,15.07
2022-12-04T22:44:38.164Z,13.38
2022-12-04T22:47:05.245Z,13.95
2022-12-04T22:49:32.257Z,12.50
2022-12-04T22:51:59.150Z,14.70
2022-12-04T22:54:26.094Z,12.77
2022-12-04T22:56:53.537Z,15.23
2022-12-04T22:59:20.524Z,13.15
2022-12-04T23:01:47.672Z,13.60
2022-12-04T23:04:14.610Z,15.40
2022-12-04T23:06:41.509Z,11.38
2022-12-04T23:09:12.847Z,13.82
2022-12-04T23:11:39.786Z,14.18
2022-12-04T23:14:09.436Z,13.85
2022-12-04T23:16:37.902Z,12.38
2022-12-04T23:19:06.875Z,11.20
2022-12-04T23:21:34.706Z,11.63
2022-12-04T23:24:01.924Z,13.90
2022-12-04T23:26:36.050Z,12.13
2022-12-04T23:29:18.039Z,15.60
2022-12-04T23:31:51.450Z,12.40
2022-12-04T23:34:18.462Z,15.45
2022-12-04T23:36:45.472Z,17.30
2022-12-04T23:39:12.883Z,11.25
2022-12-04T23:41:39.945Z,15.10
2022-12-04T23:44:06.900Z,14.88
2022-12-04T23:46:34.060Z,14.48
2022-12-04T23:49:01.642Z,14.82
2022-12-04T23:51:30.325Z,11.18
2022-12-04T23:53:57.475Z,13.55
2022-12-04T23:56:27.077Z,15.35
2022-12-04T23:58:56.237Z,13.52
